Easterwood Field
KCLL : now visible

Airfield :











YOU CAN JOIN US ON...

 
LOGIN :

Register | Disclaimer

   EN    FR    IT 

 









Legend :    VFR   Marginal VFR   IFR   Intensive IFR   Very Intensive IFR
Visi :
Ceiling :
>= 8 km
>= 3000ft
5 to 8 km
1000 to 3000 ft
1500m to 5 km
500 to 1000 ft
800 to 1500m
200 to 500 ft
< 800m
< 200 ft
Symbols :   Thunderstorms  Fog  Heavy snow  Heavy precipitations  Wind > 20 kt






- Airport Elevation : 320 ft
- IATA code : CLL


KCLL - Easterwood Field

CURRENT METAR :
  • 191753Z 04008KT 10SM OVC006 11/09 A3026 RMK AO2 RAE49 CIG 006V010 SLPNO P0000 6//// T01110094

EXPIRED METARs :
  • 191653Z 04012KT 4SM -RA BR OVC009 11/09 A3026 RMK AO2 RAB45 SLPNO P0000 T01110089
  • 191553Z 04011KT 10SM OVC009 11/09 A3027 RMK AO2 RAB08E49 SLPNO T01110089
  • 191544Z 05010KT 10SM -RA OVC009 11/09 A3026 RMK AO2 RAB08 T01060089 PNO
  • 191453Z 030/10KT 10SM OVC007 11/08 A3025

TAF KCLL
Valid from the 19 at 18:00 until the 20 at 18:00 UTC


191729Z 1918/2018 04012KT 4SM BR VCSH OVC009
FM200600 36009KT 4SM -SHRA BR OVC007
FM201200 01010KT 3SM SHRA BR OVC005
FM201500 02014KT 4SM BR VCSH SCT005 OVC009



MET'MAP, your aeronautical weather chart ! - Copyright ORBIFLY December 2007 - Disclaimer

ORBIFLY MET'MAP TEAM :

Programming & Development : Alexandra Zaïnal
Concept & original design : Baudouin d'Aumeries
Assistance for programming : Marc-Olivier Méhu
Technical & hardware support : Manuel Goepfert

Contact : metmap@orbifly.com




SOURCES & CREDITS :

   NOAA       Earth
Advisory